Time;durP1;ratioP1;P1;durP2;ratioP2;P2;SDS_P1;SDS_P2;PMS_P1;PMS_P2;Temp;Humidity;BMP_temperature;BMP_pressure;BME280_temperature;BME280_humidity;BME280_pressure;Samples;Min_cycle;Max_cycle;Signal;HPM_P1;HPM_P2
2022/01/24 00:01:36;;;;;;;11.20;6.20;;;2.80;89.30;;;;;;5091065;28;20175;-69
2022/01/24 00:04:03;;;;;;;12.85;6.00;;;2.70;89.50;;;;;;5091459;28;20638;-70
2022/01/24 00:06:31;;;;;;;13.05;6.78;;;2.70;89.70;;;;;;5091666;28;20203;-69
2022/01/24 00:08:57;;;;;;;14.77;7.30;;;2.60;89.90;;;;;;5091243;28;20175;-69
2022/01/24 00:11:28;;;;;;;13.32;5.93;;;2.50;90.10;;;;;;5091066;28;20661;-70
2022/01/24 00:16:58;;;;;;;16.40;7.25;;;2.40;90.40;;;;;;5090698;28;20607;-68
2022/01/24 00:27:15;;;;;;;15.05;6.32;;;2.10;91.10;;;;;;5088790;28;20205;-68
2022/01/24 00:29:41;;;;;;;17.40;7.03;;;2.10;91.30;;;;;;5088807;28;20191;-70
2022/01/24 00:32:07;;;;;;;15.63;7.38;;;2.00;91.40;;;;;;5089467;28;20187;-70
2022/01/24 00:34:33;;;;;;;15.25;7.70;;;2.00;91.70;;;;;;5089442;28;20228;-70
2022/01/24 00:37:00;;;;;;;13.03;6.70;;;2.00;91.80;;;;;;5091378;28;20208;-71
2022/01/24 00:39:26;;;;;;;18.70;7.95;;;2.00;91.90;;;;;;5093804;28;20461;-70
2022/01/24 00:47:03;;;;;;;17.40;7.53;;;1.90;92.20;;;;;;5091861;28;20210;-69
2022/01/24 00:54:48;;;;;;;15.73;8.25;;;1.80;92.50;;;;;;5091410;28;20198;-68
2022/01/24 00:57:14;;;;;;;19.08;7.43;;;1.80;92.60;;;;;;5091251;28;20206;-69
2022/01/24 00:59:40;;;;;;;17.58;7.93;;;1.70;92.70;;;;;;5090426;28;20697;-67
2022/01/24 01:02:07;;;;;;;21.17;7.53;;;1.70;92.70;;;;;;5089848;28;20298;-71
2022/01/24 01:05:01;;;;;;;22.23;8.63;;;1.70;92.80;;;;;;5091243;28;20425;-70
2022/01/24 01:18:17;;;;;;;15.73;7.85;;;1.60;93.20;;;;;;5091899;28;20217;-70
2022/01/24 01:23:18;;;;;;;17.65;8.38;;;1.70;93.30;;;;;;5105955;28;20688;-69
2022/01/24 01:25:45;;;;;;;20.27;8.48;;;1.70;93.20;;;;;;5105547;28;20266;-69
2022/01/24 01:28:11;;;;;;;20.45;8.77;;;1.60;93.10;;;;;;5098014;28;20194;-69
2022/01/24 01:30:42;;;;;;;19.52;9.52;;;1.60;93.20;;;;;;5092047;28;20215;-69
2022/01/24 01:33:19;;;;;;;18.67;8.48;;;1.50;93.40;;;;;;5098022;28;20179;-69
2022/01/24 01:35:59;;;;;;;16.70;8.38;;;1.50;93.50;;;;;;5099552;28;20183;-69
2022/01/24 01:56:47;;;;;;;20.30;9.05;;;1.50;93.80;;;;;;5090673;28;20287;-69
2022/01/24 01:59:13;;;;;;;19.13;9.50;;;1.50;93.80;;;;;;5085285;28;20617;-69
2022/01/24 02:01:39;;;;;;;15.63;8.23;;;1.40;93.70;;;;;;5090507;28;20186;-69
2022/01/24 02:04:05;;;;;;;16.60;8.50;;;1.40;93.70;;;;;;5089376;28;20216;-69
2022/01/24 02:06:32;;;;;;;13.75;8.57;;;1.40;93.90;;;;;;5090264;28;20275;-69
2022/01/24 02:09:04;;;;;;;18.08;8.75;;;1.30;93.90;;;;;;5090032;28;20828;-69
2022/01/24 02:11:30;;;;;;;21.27;9.43;;;1.30;94.00;;;;;;5090694;28;20183;-69
2022/01/24 02:13:59;;;;;;;21.63;9.00;;;1.20;94.10;;;;;;5090483;28;20175;-69
2022/01/24 02:21:45;;;;;;;17.27;8.85;;;1.30;94.40;;;;;;5090325;28;20665;-69
2022/01/24 02:24:14;;;;;;;21.10;9.98;;;1.30;94.40;;;;;;5090520;28;20175;-68
2022/01/24 02:26:40;;;;;;;18.45;9.55;;;1.20;94.40;;;;;;5090288;28;20211;-68
2022/01/24 02:30:13;;;;;;;16.55;9.45;;;1.20;94.50;;;;;;5089711;28;20175;-68
2022/01/24 02:32:02;;;;;;;20.10;9.77;;;1.20;94.40;;;;;;5078101;28;20195;-68
2022/01/24 02:34:37;;;;;;;22.48;10.25;;;1.10;94.50;;;;;;5090213;28;20247;-69
2022/01/24 02:37:05;;;;;;;18.05;8.60;;;1.20;94.60;;;;;;5090588;28;20202;-68
2022/01/24 02:53:30;;;;;;;19.15;10.05;;;1.00;94.90;;;;;;5068250;28;20214;-69
2022/01/24 02:55:55;;;;;;;14.90;8.15;;;1.00;95.00;;;;;;5073447;28;20176;-68
2022/01/24 02:58:21;;;;;;;19.00;9.57;;;1.00;95.00;;;;;;5060020;28;20222;-70
2022/01/24 03:00:48;;;;;;;18.27;9.10;;;1.00;95.10;;;;;;5063552;28;20280;-68
2022/01/24 03:03:14;;;;;;;16.33;8.57;;;0.90;95.20;;;;;;5072054;28;20243;-69
2022/01/24 03:05:40;;;;;;;20.75;10.00;;;0.90;95.20;;;;;;5066780;28;20218;-69
2022/01/24 03:08:06;;;;;;;21.40;10.80;;;0.80;95.20;;;;;;5064062;28;21066;-70
2022/01/24 03:10:39;;;;;;;23.67;9.57;;;0.80;95.40;;;;;;5066214;28;20237;-70
2022/01/24 03:15:41;;;;;;;19.70;9.88;;;0.90;95.60;;;;;;5076627;28;20193;-69
2022/01/24 03:18:07;;;;;;;19.85;9.70;;;0.90;95.50;;;;;;5069663;28;20212;-68
2022/01/24 03:20:34;;;;;;;22.65;10.68;;;0.90;95.50;;;;;;5063468;28;20246;-70
2022/01/24 03:23:00;;;;;;;20.38;10.00;;;0.90;95.50;;;;;;5069116;28;20176;-70
2022/01/24 03:25:27;;;;;;;17.63;9.98;;;0.90;95.50;;;;;;5084813;28;20677;-69
2022/01/24 03:27:53;;;;;;;20.48;9.73;;;0.90;95.40;;;;;;5092884;28;20210;-69
2022/01/24 03:30:18;;;;;;;19.93;9.40;;;0.80;95.40;;;;;;5092173;28;20179;-69
2022/01/24 03:32:44;;;;;;;17.73;9.67;;;0.90;95.50;;;;;;5093682;28;20194;-69
2022/01/24 03:35:10;;;;;;;16.40;9.23;;;0.90;95.40;;;;;;5093866;28;20421;-69
2022/01/24 03:37:37;;;;;;;18.30;9.00;;;0.90;95.40;;;;;;5093097;28;20453;-69
2022/01/24 03:40:06;;;;;;;22.77;10.25;;;0.80;95.40;;;;;;5092090;28;20461;-69
2022/01/24 03:42:34;;;;;;;18.92;9.18;;;0.80;95.30;;;;;;5093557;28;20179;-70
2022/01/24 03:45:04;;;;;;;19.00;8.73;;;0.80;95.30;;;;;;5092809;28;20666;-69
2022/01/24 03:47:42;;;;;;;19.55;8.88;;;0.80;95.30;;;;;;5091572;28;20325;-70
2022/01/24 03:50:17;;;;;;;15.55;8.40;;;0.80;95.30;;;;;;5092732;28;20214;-69
2022/01/24 03:52:46;;;;;;;23.38;11.15;;;0.70;95.30;;;;;;5093616;28;20190;-68
2022/01/24 03:55:12;;;;;;;17.58;9.10;;;0.70;95.50;;;;;;5093092;28;20187;-68
2022/01/24 03:57:39;;;;;;;20.90;9.85;;;0.70;95.50;;;;;;5090484;28;20345;-69
2022/01/24 04:00:07;;;;;;;18.80;9.73;;;0.70;95.60;;;;;;5093010;28;20581;-68
2022/01/24 04:02:35;;;;;;;25.02;10.65;;;0.70;95.60;;;;;;5090029;28;20182;-68
2022/01/24 04:05:01;;;;;;;20.42;9.30;;;0.70;95.70;;;;;;5092776;28;20182;-69
2022/01/24 04:07:27;;;;;;;23.40;10.23;;;0.60;95.70;;;;;;5091599;28;20202;-69
2022/01/24 04:09:53;;;;;;;22.43;10.13;;;0.70;95.80;;;;;;5092208;28;20429;-69
2022/01/24 04:12:22;;;;;;;19.33;8.60;;;0.70;95.80;;;;;;5091429;28;20183;-68
2022/01/24 04:22:14;;;;;;;20.27;9.90;;;0.60;95.90;;;;;;5094261;28;20186;-70
2022/01/24 04:24:41;;;;;;;18.42;10.13;;;0.60;96.00;;;;;;5093302;28;20183;-69
2022/01/24 04:27:08;;;;;;;22.25;10.45;;;0.60;96.10;;;;;;5092522;28;20221;-69
2022/01/24 04:29:35;;;;;;;17.95;9.73;;;0.60;96.10;;;;;;5091095;28;20812;-68
2022/01/24 04:32:01;;;;;;;23.20;11.38;;;0.70;96.10;;;;;;5090689;28;20190;-69
2022/01/24 04:34:27;;;;;;;25.55;12.20;;;0.60;96.00;;;;;;5091111;28;20277;-69
2022/01/24 04:36:53;;;;;;;26.60;12.13;;;0.60;96.10;;;;;;5090224;28;20765;-69
2022/01/24 04:39:19;;;;;;;20.93;11.13;;;0.60;96.20;;;;;;5090541;28;20198;-69
2022/01/24 04:41:48;;;;;;;26.48;11.07;;;0.60;96.30;;;;;;5104570;28;20185;-69
2022/01/24 04:54:40;;;;;;;21.63;11.50;;;0.70;96.10;;;;;;5090036;28;20174;-70
2022/01/24 04:57:11;;;;;;;22.30;11.23;;;0.60;96.00;;;;;;5091236;28;20928;-70
2022/01/24 04:59:38;;;;;;;23.35;10.95;;;0.60;96.00;;;;;;5090453;28;20199;-69
2022/01/24 05:02:05;;;;;;;23.30;11.70;;;0.50;96.20;;;;;;5090537;28;20271;-71
2022/01/24 05:04:31;;;;;;;22.98;11.02;;;0.60;96.20;;;;;;5090573;28;20182;-69
2022/01/24 05:06:56;;;;;;;24.93;11.33;;;0.60;96.30;;;;;;5090156;28;20195;-69
2022/01/24 05:09:23;;;;;;;27.90;12.20;;;0.60;96.30;;;;;;5090579;28;20478;-69
2022/01/24 05:11:54;;;;;;;19.00;10.80;;;0.50;96.40;;;;;;5092035;28;20440;-71
2022/01/24 05:25:19;;;;;;;21.33;10.30;;;0.50;96.30;;;;;;5084705;28;20225;-69
2022/01/24 05:27:45;;;;;;;21.90;11.40;;;0.50;96.30;;;;;;5090141;28;20211;-70
2022/01/24 05:30:12;;;;;;;19.08;9.73;;;0.50;96.30;;;;;;5088734;28;20199;-70
2022/01/24 05:32:38;;;;;;;21.90;11.48;;;0.50;96.30;;;;;;5089964;28;20637;-69
2022/01/24 05:35:04;;;;;;;25.83;11.63;;;0.50;96.30;;;;;;5089878;28;20195;-70
2022/01/24 05:37:30;;;;;;;25.70;12.13;;;0.40;96.40;;;;;;5089317;28;20272;-70
2022/01/24 05:39:56;;;;;;;25.53;11.30;;;0.40;96.40;;;;;;5089842;28;20605;-69
2022/01/24 05:42:22;;;;;;;27.70;11.73;;;0.40;96.50;;;;;;5089969;28;20197;-70
2022/01/24 05:44:52;;;;;;;26.73;12.97;;;0.40;96.50;;;;;;5089947;28;20988;-69
2022/01/24 05:47:18;;;;;;;23.42;12.00;;;0.40;96.60;;;;;;5089640;28;20439;-69
2022/01/24 05:49:45;;;;;;;25.27;12.38;;;0.30;96.80;;;;;;5090128;28;20244;-69
2022/01/24 05:52:12;;;;;;;28.73;12.20;;;0.40;96.80;;;;;;5089895;28;20204;-69
2022/01/24 05:54:39;;;;;;;29.65;13.15;;;0.40;96.90;;;;;;5090002;28;20179;-70
2022/01/24 05:57:06;;;;;;;30.50;14.25;;;0.50;96.90;;;;;;5089061;28;20198;-69
2022/01/24 05:59:32;;;;;;;32.30;15.00;;;0.50;96.80;;;;;;5089307;28;20206;-69
2022/01/24 06:01:58;;;;;;;33.43;14.80;;;0.50;96.80;;;;;;5089683;28;20231;-69
2022/01/24 06:04:24;;;;;;;31.00;14.47;;;0.50;96.80;;;;;;5089707;28;20457;-70
2022/01/24 06:06:49;;;;;;;31.93;14.77;;;0.50;96.80;;;;;;5088749;28;20222;-70
2022/01/24 06:09:15;;;;;;;27.53;14.40;;;0.50;96.80;;;;;;5088487;28;20509;-69
2022/01/24 06:11:42;;;;;;;24.53;12.30;;;0.50;96.80;;;;;;5089391;28;20432;-71
2022/01/24 06:14:08;;;;;;;28.15;14.10;;;0.50;96.80;;;;;;5089586;28;20186;-69
2022/01/24 06:16:34;;;;;;;27.23;12.87;;;0.50;96.70;;;;;;5088995;28;20203;-71
2022/01/24 06:19:00;;;;;;;48.03;18.20;;;0.50;96.70;;;;;;5088859;28;20237;-70
2022/01/24 06:21:25;;;;;;;56.30;21.40;;;0.50;96.70;;;;;;5089640;28;20232;-70
2022/01/24 06:23:51;;;;;;;42.70;19.80;;;0.50;96.70;;;;;;5089836;28;20267;-69
2022/01/24 06:26:17;;;;;;;28.10;14.97;;;0.50;96.80;;;;;;5087865;28;20186;-69
2022/01/24 06:28:42;;;;;;;31.90;14.67;;;0.50;96.70;;;;;;5089390;28;20183;-70
2022/01/24 06:31:08;;;;;;;35.50;13.57;;;0.60;96.70;;;;;;5090207;28;20702;-69
2022/01/24 06:33:34;;;;;;;29.30;14.00;;;0.60;96.70;;;;;;5094066;28;20332;-69
2022/01/24 06:36:00;;;;;;;30.33;12.93;;;0.70;96.80;;;;;;5094540;28;20183;-70
2022/01/24 06:38:26;;;;;;;31.60;13.47;;;0.70;96.70;;;;;;5093822;28;20204;-70
2022/01/24 06:40:51;;;;;;;24.70;13.40;;;0.60;96.60;;;;;;5094863;28;20444;-71
2022/01/24 06:43:17;;;;;;;27.83;12.90;;;0.70;96.50;;;;;;5095936;28;20449;-70
2022/01/24 06:45:43;;;;;;;25.70;12.83;;;0.70;96.40;;;;;;5095290;28;20232;-70
2022/01/24 06:48:09;;;;;;;26.17;12.80;;;0.70;96.30;;;;;;5093684;28;20198;-70
2022/01/24 06:50:34;;;;;;;26.30;13.47;;;0.80;96.30;;;;;;5093592;28;20194;-70
2022/01/24 06:53:00;;;;;;;27.23;12.40;;;0.80;96.20;;;;;;5096348;28;20189;-69
2022/01/24 06:55:26;;;;;;;26.23;12.73;;;0.90;96.10;;;;;;5095471;28;20461;-69
2022/01/24 06:57:52;;;;;;;24.60;12.20;;;1.00;96.00;;;;;;5095347;28;20449;-68
2022/01/24 07:00:25;;;;;;;24.93;12.90;;;1.00;95.70;;;;;;5093514;28;20207;-69
2022/01/24 07:02:51;;;;;;;30.00;13.35;;;1.00;95.50;;;;;;5093877;28;20843;-69
2022/01/24 07:05:17;;;;;;;22.15;11.48;;;1.00;95.40;;;;;;5094280;28;20182;-70
2022/01/24 07:07:43;;;;;;;29.47;12.67;;;1.00;95.30;;;;;;5094689;28;20310;-70
2022/01/24 07:10:08;;;;;;;30.30;13.83;;;1.00;95.10;;;;;;5092602;28;20184;-69
2022/01/24 07:12:34;;;;;;;28.80;12.77;;;1.00;95.00;;;;;;5092964;28;20226;-68
2022/01/24 07:15:07;;;;;;;23.43;11.37;;;1.00;94.90;;;;;;5091561;28;20646;-68
2022/01/24 07:17:56;;;;;;;21.38;12.77;;;1.10;95.00;;;;;;5092494;28;20206;-70
2022/01/24 07:20:18;;;;;;;30.98;14.70;;;1.10;94.90;;;;;;5087716;28;20344;-71
2022/01/24 07:22:44;;;;;;;27.13;12.53;;;1.30;94.90;;;;;;5093344;28;20266;-70
2022/01/24 07:25:10;;;;;;;27.23;13.00;;;1.30;94.70;;;;;;5092736;28;20175;-71
2022/01/24 07:27:36;;;;;;;29.13;12.55;;;1.30;94.60;;;;;;5092784;28;20207;-71
2022/01/24 07:30:03;;;;;;;30.27;15.17;;;1.30;94.50;;;;;;5091879;28;20264;-69
2022/01/24 07:32:30;;;;;;;25.13;12.60;;;1.40;94.60;;;;;;5093294;28;20176;-70
2022/01/24 07:34:56;;;;;;;26.10;13.32;;;1.40;94.50;;;;;;5094215;28;20658;-71
2022/01/24 07:37:23;;;;;;;30.92;13.60;;;1.40;94.10;;;;;;5100528;28;20211;-72
2022/01/24 07:39:49;;;;;;;25.65;12.48;;;1.40;94.00;;;;;;5099139;28;20282;-70
2022/01/24 07:42:18;;;;;;;27.35;13.02;;;1.50;94.10;;;;;;5098675;28;20175;-72
2022/01/24 07:44:44;;;;;;;31.35;13.05;;;1.50;93.80;;;;;;5095055;28;20183;-70
2022/01/24 07:47:10;;;;;;;28.08;13.15;;;1.60;93.80;;;;;;5098123;28;20219;-70
2022/01/24 07:49:37;;;;;;;24.90;13.75;;;1.70;93.80;;;;;;5099480;28;20207;-70
2022/01/24 07:52:03;;;;;;;27.80;15.20;;;1.80;93.70;;;;;;5104273;28;20179;-70
2022/01/24 07:54:29;;;;;;;26.57;13.53;;;1.80;93.60;;;;;;5103710;28;20247;-70
2022/01/24 07:56:55;;;;;;;24.63;13.00;;;1.80;93.40;;;;;;5103751;28;20865;-70
2022/01/24 07:59:21;;;;;;;25.80;13.23;;;1.90;93.30;;;;;;5102154;28;20217;-70
2022/01/24 08:01:48;;;;;;;27.77;12.70;;;2.00;93.20;;;;;;5098381;28;20280;-70
2022/01/24 08:04:14;;;;;;;25.15;12.68;;;2.10;93.10;;;;;;5092159;28;20179;-70
2022/01/24 08:06:39;;;;;;;25.93;12.93;;;2.20;92.90;;;;;;5088410;28;20312;-69
2022/01/24 08:09:09;;;;;;;25.43;12.40;;;2.20;92.70;;;;;;5090476;28;20179;-69
2022/01/24 08:11:38;;;;;;;24.95;12.27;;;2.40;92.40;;;;;;5091641;28;20179;-70
2022/01/24 08:14:04;;;;;;;26.35;13.43;;;2.40;92.00;;;;;;5085178;28;20179;-70
2022/01/24 08:16:29;;;;;;;21.03;12.07;;;2.50;91.90;;;;;;5091613;28;20736;-71
2022/01/24 08:18:57;;;;;;;22.30;12.27;;;2.50;91.60;;;;;;5091404;28;20543;-71
2022/01/24 08:21:23;;;;;;;26.30;12.35;;;2.60;91.30;;;;;;5091996;28;20282;-70
2022/01/24 08:23:50;;;;;;;26.88;12.95;;;2.70;90.90;;;;;;5091815;28;20194;-71
2022/01/24 08:26:17;;;;;;;23.75;13.93;;;2.80;90.70;;;;;;5091080;28;20740;-70
2022/01/24 08:28:43;;;;;;;26.20;12.82;;;2.90;90.60;;;;;;5093703;28;20597;-71
2022/01/24 08:31:08;;;;;;;24.37;12.83;;;2.80;90.60;;;;;;5092308;28;20187;-70
2022/01/24 08:33:34;;;;;;;26.23;12.43;;;2.80;90.80;;;;;;5090494;28;20183;-71
2022/01/24 08:36:00;;;;;;;30.00;13.60;;;2.90;91.10;;;;;;5091967;28;20184;-71
2022/01/24 08:38:27;;;;;;;24.58;13.68;;;3.00;91.20;;;;;;5090612;28;20203;-70
2022/01/24 08:40:58;;;;;;;25.00;12.73;;;3.00;91.00;;;;;;5091651;28;20549;-71
2022/01/24 08:43:38;;;;;;;28.77;13.80;;;3.10;90.80;;;;;;5091592;28;20750;-70
2022/01/24 08:46:04;;;;;;;25.70;12.85;;;3.30;90.60;;;;;;5091158;28;20194;-71
2022/01/24 08:48:31;;;;;;;27.30;13.55;;;3.40;90.10;;;;;;5089232;28;20195;-71
2022/01/24 08:50:59;;;;;;;28.65;13.68;;;3.40;89.90;;;;;;5091897;28;20262;-70
2022/01/24 08:53:33;;;;;;;24.98;13.98;;;3.50;89.90;;;;;;5091296;28;20176;-71
2022/01/24 08:56:00;;;;;;;27.75;13.45;;;3.60;89.50;;;;;;5093784;28;20185;-68
2022/01/24 08:58:27;;;;;;;24.17;13.30;;;3.70;88.70;;;;;;5092300;28;20203;-69
2022/01/24 09:00:53;;;;;;;27.10;12.85;;;3.70;88.00;;;;;;5092680;28;20183;-70
2022/01/24 09:03:19;;;;;;;26.88;13.05;;;3.80;87.60;;;;;;5091455;28;20175;-69
2022/01/24 09:05:47;;;;;;;28.58;13.65;;;3.80;87.70;;;;;;5091310;28;20187;-71
2022/01/24 09:08:13;;;;;;;25.10;13.87;;;3.90;87.60;;;;;;5091103;28;20544;-71
2022/01/24 09:10:40;;;;;;;26.52;12.07;;;4.00;87.60;;;;;;5093085;28;20417;-70
2022/01/24 09:13:07;;;;;;;27.20;13.95;;;4.10;87.30;;;;;;5094997;28;20274;-69
2022/01/24 09:15:33;;;;;;;23.97;12.83;;;4.20;86.50;;;;;;5091771;28;20321;-70
2022/01/24 09:17:59;;;;;;;32.47;13.97;;;4.20;85.90;;;;;;5094446;28;20969;-70
2022/01/24 09:20:25;;;;;;;27.13;14.60;;;4.20;85.90;;;;;;5097483;28;20673;-70
2022/01/24 09:22:51;;;;;;;28.87;13.17;;;4.20;85.70;;;;;;5098350;28;20249;-69
2022/01/24 09:25:19;;;;;;;23.00;12.93;;;4.20;86.00;;;;;;5094355;28;20424;-70
2022/01/24 09:27:46;;;;;;;37.93;13.17;;;4.10;85.90;;;;;;5092514;28;20195;-71
2022/01/24 09:30:15;;;;;;;23.23;13.35;;;4.00;86.00;;;;;;5090180;28;20498;-70
2022/01/24 09:32:41;;;;;;;26.73;14.25;;;4.00;86.00;;;;;;5089943;28;20183;-69
2022/01/24 09:35:09;;;;;;;33.50;15.90;;;3.90;86.80;;;;;;5090483;28;20179;-70
2022/01/24 09:37:35;;;;;;;33.60;14.77;;;3.90;87.10;;;;;;5090002;28;20250;-69
2022/01/24 09:40:02;;;;;;;26.60;14.77;;;3.90;87.30;;;;;;5090402;28;20234;-69
2022/01/24 09:42:28;;;;;;;33.42;16.30;;;3.90;87.60;;;;;;5091212;28;20424;-71
2022/01/24 09:44:55;;;;;;;33.93;15.80;;;3.90;87.80;;;;;;5082916;28;20183;-70
2022/01/24 09:47:20;;;;;;;30.30;16.33;;;4.00;87.80;;;;;;5090405;28;20260;-71
2022/01/24 09:49:48;;;;;;;30.23;14.87;;;4.10;87.60;;;;;;5090053;28;20923;-71
2022/01/24 09:52:14;;;;;;;34.53;16.30;;;4.10;86.80;;;;;;5091534;28;20187;-72
2022/01/24 09:54:39;;;;;;;25.87;14.07;;;4.10;86.80;;;;;;5090346;28;20432;-70
2022/01/24 09:57:05;;;;;;;27.23;14.50;;;4.20;87.00;;;;;;5089399;28;20456;-70
2022/01/24 09:59:32;;;;;;;18.90;11.30;;;4.20;86.90;;;;;;5089692;28;20199;-70
2022/01/24 10:01:58;;;;;;;19.63;11.53;;;4.30;86.30;;;;;;5090043;28;20496;-69
2022/01/24 10:04:25;;;;;;;21.07;11.50;;;4.50;84.40;;;;;;5090118;28;20421;-70
2022/01/24 10:07:00;;;;;;;18.45;10.10;;;4.50;83.00;;;;;;5087313;28;20429;-69
2022/01/24 10:09:48;;;;;;;20.50;10.40;;;4.50;82.80;;;;;;5089567;28;20182;-69
2022/01/24 10:16:24;;;;;;;17.30;9.70;;;4.60;82.10;;;;;;5085576;28;20409;-69
2022/01/24 10:18:08;;;;;;;13.53;7.87;;;4.80;80.90;;;;;;5089552;28;20448;-69
2022/01/24 10:20:38;;;;;;;17.73;9.40;;;4.80;79.50;;;;;;5090109;28;20464;-69
2022/01/24 10:23:07;;;;;;;16.33;8.43;;;4.80;80.00;;;;;;5090121;28;21112;-69
2022/01/24 10:26:03;;;;;;;13.77;8.90;;;4.80;79.70;;;;;;5089715;28;20443;-70
2022/01/24 10:28:40;;;;;;;15.97;8.60;;;4.90;79.30;;;;;;5085648;28;20428;-70
2022/01/24 10:31:12;;;;;;;21.67;10.17;;;4.80;79.50;;;;;;5088863;28;20420;-69
2022/01/24 10:36:44;;;;;;;11.43;6.30;;;5.00;79.20;;;;;;5088996;28;20441;-69
2022/01/24 10:39:13;;;;;;;11.30;6.30;;;5.00;78.60;;;;;;5089121;28;20453;-71
2022/01/24 10:41:54;;;;;;;11.73;5.90;;;5.10;77.30;;;;;;5089914;28;20942;-70
2022/01/24 10:44:34;;;;;;;10.60;6.63;;;5.30;77.00;;;;;;5088980;28;20426;-70
2022/01/24 10:47:10;;;;;;;12.63;6.50;;;5.70;75.10;;;;;;5090959;28;20660;-71
2022/01/24 10:49:36;;;;;;;9.73;6.40;;;5.90;74.20;;;;;;5088283;28;20460;-69
2022/01/24 10:52:19;;;;;;;15.37;6.50;;;6.20;74.20;;;;;;5090296;28;20421;-71
2022/01/24 10:54:51;;;;;;;13.20;7.23;;;6.70;72.40;;;;;;5091501;28;20195;-71
2022/01/24 10:57:24;;;;;;;9.63;5.43;;;7.10;71.80;;;;;;5092525;28;20440;-69
2022/01/24 10:59:51;;;;;;;8.47;5.97;;;7.30;69.50;;;;;;5099536;28;20542;-70
2022/01/24 11:02:17;;;;;;;11.40;5.27;;;7.30;69.20;;;;;;5102677;28;20413;-70
2022/01/24 11:04:43;;;;;;;13.80;7.33;;;7.40;68.80;;;;;;5094552;28;20435;-70
2022/01/24 11:07:10;;;;;;;10.30;6.20;;;7.60;69.20;;;;;;5092154;28;20441;-71
2022/01/24 11:09:40;;;;;;;10.37;6.63;;;7.70;68.30;;;;;;5091920;28;21297;-71
2022/01/24 11:12:12;;;;;;;11.30;5.60;;;8.10;68.50;;;;;;5093684;28;20506;-71
2022/01/24 11:14:45;;;;;;;9.20;5.60;;;8.40;66.60;;;;;;5095516;28;20421;-71
2022/01/24 11:17:14;;;;;;;10.20;5.70;;;8.60;65.60;;;;;;5095304;28;20448;-70
2022/01/24 11:19:49;;;;;;;10.07;5.60;;;9.00;65.30;;;;;;5096266;28;20529;-70
2022/01/24 11:22:25;;;;;;;9.93;6.30;;;9.30;63.50;;;;;;5096595;28;20503;-71
2022/01/24 11:24:58;;;;;;;10.43;5.40;;;9.50;63.20;;;;;;5097551;28;20500;-70
2022/01/24 11:27:25;;;;;;;9.40;5.87;;;9.50;62.00;;;;;;5095558;28;20441;-70
2022/01/24 11:29:53;;;;;;;11.70;6.07;;;9.20;62.50;;;;;;5093272;28;20440;-71
2022/01/24 11:32:33;;;;;;;10.20;6.13;;;8.90;63.20;;;;;;5094273;28;20542;-71
2022/01/24 11:34:59;;;;;;;8.97;5.90;;;8.40;64.80;;;;;;5092210;28;20962;-71
2022/01/24 11:37:38;;;;;;;12.50;6.33;;;8.10;66.00;;;;;;5092877;28;20437;-71
2022/01/24 11:40:06;;;;;;;10.13;5.97;;;7.60;67.50;;;;;;5094228;28;20472;-70
2022/01/24 11:42:35;;;;;;;10.60;5.80;;;7.20;68.80;;;;;;5093861;28;20413;-71
2022/01/24 11:45:05;;;;;;;13.10;7.33;;;6.90;70.20;;;;;;5094007;28;20429;-70
2022/01/24 11:47:31;;;;;;;10.27;6.10;;;6.70;71.00;;;;;;5093062;28;20630;-70
2022/01/24 11:49:58;;;;;;;13.90;8.37;;;6.60;72.00;;;;;;5093713;28;20432;-70
2022/01/24 11:52:32;;;;;;;14.30;7.53;;;6.50;72.60;;;;;;5094022;28;20435;-72
2022/01/24 11:55:15;;;;;;;10.30;5.30;;;6.40;73.30;;;;;;5097856;28;20413;-69
2022/01/24 11:57:42;;;;;;;11.07;5.70;;;6.40;73.20;;;;;;5095845;28;21051;-70
2022/01/24 12:00:08;;;;;;;10.80;6.53;;;6.50;73.30;;;;;;5098120;28;20504;-70
2022/01/24 12:02:53;;;;;;;17.27;8.00;;;6.50;73.30;;;;;;5094490;28;20827;-71
2022/01/24 12:05:22;;;;;;;14.93;8.43;;;6.50;73.90;;;;;;5093484;28;20232;-71
2022/01/24 12:07:50;;;;;;;15.27;8.40;;;6.50;74.30;;;;;;5093302;28;20495;-71
2022/01/24 12:10:44;;;;;;;14.40;7.67;;;6.40;74.60;;;;;;5092019;28;20978;-70
2022/01/24 12:13:35;;;;;;;15.53;8.87;;;6.20;75.20;;;;;;5087644;28;20421;-71
2022/01/24 12:16:10;;;;;;;14.40;7.53;;;6.30;75.70;;;;;;5085477;28;20441;-72
2022/01/24 12:18:43;;;;;;;16.00;7.70;;;6.30;75.70;;;;;;5093416;28;20432;-72
2022/01/24 12:21:14;;;;;;;15.53;9.30;;;6.30;75.70;;;;;;5093598;28;20474;-71
2022/01/24 12:23:41;;;;;;;15.93;8.27;;;6.30;75.50;;;;;;5093521;28;20775;-71
2022/01/24 12:26:13;;;;;;;15.00;8.47;;;6.40;75.50;;;;;;5091852;28;20429;-70
2022/01/24 12:28:42;;;;;;;20.10;8.30;;;6.50;75.70;;;;;;5092238;28;20449;-72
2022/01/24 12:31:20;;;;;;;12.73;7.50;;;6.40;75.10;;;;;;5093263;28;20421;-70
2022/01/24 12:33:55;;;;;;;12.57;7.90;;;6.30;75.40;;;;;;5093514;28;20421;-71
2022/01/24 12:36:47;;;;;;;14.87;8.30;;;6.40;75.50;;;;;;5092234;28;20842;-70
2022/01/24 12:39:35;;;;;;;14.40;7.53;;;6.30;75.70;;;;;;5095410;28;20472;-75
2022/01/24 12:42:13;;;;;;;11.93;7.40;;;6.40;75.70;;;;;;5093478;28;21017;-71
2022/01/24 12:47:19;;;;;;;12.23;6.53;;;6.40;75.40;;;;;;5094025;28;20974;-71
2022/01/24 12:49:47;;;;;;;12.27;7.77;;;6.60;74.80;;;;;;5092978;28;20806;-71
2022/01/24 12:52:16;;;;;;;10.90;6.90;;;6.80;74.20;;;;;;5092257;28;20425;-71
2022/01/24 12:54:52;;;;;;;10.43;6.60;;;7.10;73.50;;;;;;5092626;28;20421;-71
2022/01/24 12:57:21;;;;;;;14.70;6.30;;;7.40;72.60;;;;;;5093952;28;20441;-71
2022/01/24 13:00:01;;;;;;;10.67;6.20;;;7.70;71.00;;;;;;5093815;28;20962;-70
2022/01/24 13:02:30;;;;;;;7.80;5.37;;;7.90;70.20;;;;;;5092738;28;20447;-71
2022/01/24 13:05:07;;;;;;;10.80;6.00;;;8.10;70.40;;;;;;5084877;28;20409;-71
2022/01/24 13:07:34;;;;;;;10.80;5.60;;;8.20;69.10;;;;;;5092577;28;20478;-72
2022/01/24 13:10:09;;;;;;;12.13;5.87;;;8.30;68.50;;;;;;5093856;28;20413;-70
2022/01/24 13:12:36;;;;;;;13.63;5.40;;;8.20;68.60;;;;;;5092476;28;20420;-70
2022/01/24 13:15:06;;;;;;;18.23;7.20;;;8.40;68.80;;;;;;5093088;28;20413;-71
2022/01/24 13:22:55;;;;;;;12.50;5.80;;;8.10;69.50;;;;;;5093193;28;20520;-72
2022/01/24 13:25:29;;;;;;;9.63;5.47;;;8.00;69.80;;;;;;5092896;28;20445;-71
2022/01/24 13:27:57;;;;;;;10.37;5.40;;;8.00;70.10;;;;;;5090623;28;20441;-71
2022/01/24 13:30:27;;;;;;;13.40;5.40;;;8.00;69.70;;;;;;5092286;28;20417;-72
2022/01/24 13:32:57;;;;;;;9.77;5.30;;;8.00;70.20;;;;;;5092725;28;20416;-70
2022/01/24 13:35:39;;;;;;;11.20;5.83;;;8.10;70.10;;;;;;5092781;28;20417;-71
2022/01/24 13:38:13;;;;;;;8.23;5.20;;;8.20;69.70;;;;;;5091459;28;20911;-71
2022/01/24 13:40:41;;;;;;;8.90;5.50;;;8.30;69.50;;;;;;5090633;28;20457;-70
2022/01/24 13:43:10;;;;;;;9.67;4.73;;;8.30;69.20;;;;;;5084093;28;20429;-70
2022/01/24 13:45:42;;;;;;;10.97;5.00;;;8.40;68.60;;;;;;5089810;28;20437;-71
2022/01/24 13:48:20;;;;;;;10.23;5.30;;;8.40;68.60;;;;;;5090000;28;20449;-72
2022/01/24 13:50:57;;;;;;;11.97;5.17;;;8.30;68.60;;;;;;5092482;28;20432;-72
2022/01/24 13:53:33;;;;;;;8.80;4.93;;;8.30;68.30;;;;;;5100488;28;20496;-69
2022/01/24 13:56:14;;;;;;;11.80;5.00;;;8.50;68.60;;;;;;5090933;28;20826;-71
2022/01/24 13:58:39;;;;;;;10.53;4.60;;;8.60;68.30;;;;;;5095500;28;20424;-71
2022/01/24 14:01:05;;;;;;;14.23;4.63;;;8.80;68.00;;;;;;5096965;28;20413;-71
2022/01/24 14:03:31;;;;;;;8.23;4.70;;;8.90;66.90;;;;;;5093555;28;20590;-71
2022/01/24 14:06:15;;;;;;;9.53;5.37;;;8.90;66.90;;;;;;5089280;28;20175;-69
2022/01/24 14:08:42;;;;;;;8.20;4.67;;;9.00;66.90;;;;;;5093367;28;20205;-70
2022/01/24 14:11:13;;;;;;;9.10;4.03;;;9.00;67.00;;;;;;5095066;28;20425;-71
2022/01/24 14:13:40;;;;;;;8.20;4.43;;;9.00;66.70;;;;;;5093592;28;20452;-71
2022/01/24 14:16:13;;;;;;;8.13;4.80;;;9.10;66.60;;;;;;5091083;28;20429;-71
2022/01/24 14:18:38;;;;;;;8.80;4.70;;;9.00;66.70;;;;;;5087482;28;20735;-71
2022/01/24 14:21:13;;;;;;;9.07;5.00;;;8.90;67.00;;;;;;5089383;28;20417;-69
2022/01/24 14:23:39;;;;;;;10.70;5.20;;;8.80;67.50;;;;;;5087129;28;20183;-71
2022/01/24 14:26:23;;;;;;;8.60;4.77;;;8.70;67.90;;;;;;5088615;28;20575;-72
2022/01/24 14:29:04;;;;;;;7.77;4.17;;;8.50;68.20;;;;;;5089773;28;20417;-71
2022/01/24 14:31:31;;;;;;;8.13;4.00;;;8.40;68.20;;;;;;5088956;28;20425;-71
2022/01/24 14:34:02;;;;;;;10.00;4.83;;;8.20;68.90;;;;;;5090099;28;20561;-72
2022/01/24 14:36:28;;;;;;;9.37;4.70;;;8.10;69.20;;;;;;5088730;28;20432;-71
2022/01/24 14:38:53;;;;;;;7.53;4.80;;;8.10;69.50;;;;;;5090111;28;20464;-71
2022/01/24 14:41:37;;;;;;;9.00;4.00;;;8.10;69.80;;;;;;5090093;28;20175;-72
2022/01/24 14:46:52;;;;;;;14.10;5.60;;;8.00;70.10;;;;;;5089678;28;20529;-70
2022/01/24 14:49:21;;;;;;;12.43;4.70;;;7.90;70.20;;;;;;5089044;28;20876;-71
2022/01/24 14:51:47;;;;;;;12.50;4.40;;;7.90;70.70;;;;;;5089722;28;20425;-71
2022/01/24 14:54:22;;;;;;;6.93;4.73;;;7.80;70.80;;;;;;5093015;28;20433;-72